Time;durP1;ratioP1;P1;durP2;ratioP2;P2;SDS_P1;SDS_P2;PMS_P1;PMS_P2;Temp;Humidity;BMP_temperature;BMP_pressure;BME280_temperature;BME280_humidity;BME280_pressure;Samples;Min_cycle;Max_cycle;Signal;HPM_P1;HPM_P2
2022/10/17 00:02:17;;;;;;;0.30;0.30;;;;;;;16.94;75.33;101119.47;5154884;28;20030;-84
2022/10/17 00:04:50;;;;;;;0.68;0.68;;;;;;;17.05;72.48;101124.28;5132742;28;20038;-83
2022/10/17 00:07:21;;;;;;;0.40;0.40;;;;;;;17.03;72.30;101123.47;5133625;28;20051;-82
2022/10/17 00:09:52;;;;;;;0.45;0.45;;;;;;;17.06;73.37;101131.28;5126652;28;20067;-83
2022/10/17 00:12:23;;;;;;;2.63;1.60;;;;;;;17.05;73.49;101124.28;5138026;28;20043;-81
2022/10/17 00:14:54;;;;;;;0.63;0.63;;;;;;;17.05;72.60;101132.22;5141773;28;20469;-84
2022/10/17 00:17:27;;;;;;;0.68;0.68;;;;;;;17.02;73.94;101124.41;5132200;28;20444;-83
2022/10/17 00:20:04;;;;;;;1.85;0.80;;;;;;;16.98;73.36;101123.69;5165425;28;20043;-84
2022/10/17 00:22:38;;;;;;;0.80;0.80;;;;;;;16.99;73.23;101122.75;5135497;28;20041;-83
2022/10/17 00:25:17;;;;;;;0.73;0.73;;;;;;;16.99;74.38;101123.59;5153616;28;20058;-81
2022/10/17 00:27:52;;;;;;;0.60;0.60;;;;;;;17.01;72.94;101122.69;5148567;28;20041;-82
2022/10/17 00:30:43;;;;;;;2.65;0.80;;;;;;;17.01;73.12;101127.97;5151895;28;20114;-84
2022/10/17 00:33:14;;;;;;;1.55;1.15;;;;;;;17.03;72.72;101123.47;5179027;28;20047;-82
2022/10/17 00:35:49;;;;;;;1.83;0.70;;;;;;;17.05;72.80;101137.53;5124505;28;20041;-83
2022/10/17 00:38:23;;;;;;;0.30;0.30;;;;;;;16.98;73.27;101126.34;5159250;28;20121;-82
2022/10/17 00:40:55;;;;;;;0.35;0.35;;;;;;;17.01;72.78;101114.72;5159334;28;20819;-84
2022/10/17 00:43:54;;;;;;;8.57;0.85;;;;;;;16.96;73.17;101115.81;5136522;28;20047;-83
2022/10/17 00:46:34;;;;;;;0.50;0.50;;;;;;;16.95;73.28;101119.41;5155456;28;20045;-84
2022/10/17 00:49:09;;;;;;;0.40;0.40;;;;;;;16.92;73.60;101116.84;5143949;28;20026;-83
2022/10/17 00:52:05;;;;;;;0.73;0.73;;;;;;;16.95;72.99;101124.69;5148414;28;20062;-84
2022/10/17 00:55:01;;;;;;;0.40;0.40;;;;;;;17.01;74.83;101122.69;5148236;28;20047;-84
2022/10/17 00:57:32;;;;;;;0.52;0.52;;;;;;;16.95;73.29;101118.53;5134827;28;20046;-82
2022/10/17 01:00:15;;;;;;;0.60;0.60;;;;;;;16.94;73.42;101122.13;5173454;28;20050;-83
2022/10/17 01:02:46;;;;;;;2.15;1.95;;;;;;;16.98;74.49;101121.88;5152751;28;20529;-83
2022/10/17 01:05:38;;;;;;;1.23;0.63;;;;;;;16.92;73.83;101116.84;5158578;28;20049;-83
2022/10/17 01:08:11;;;;;;;1.48;0.60;;;;;;;16.97;73.39;101124.63;5126383;28;20128;-81
2022/10/17 01:10:52;;;;;;;0.90;0.90;;;;;;;16.98;73.90;101119.22;5145857;28;20048;-83
2022/10/17 01:13:40;;;;;;;1.27;1.15;;;;;;;16.96;73.62;101128.19;5153955;28;20132;-84
2022/10/17 01:16:31;;;;;;;0.70;0.60;;;;;;;16.92;74.24;101127.44;5148646;28;20129;-83
2022/10/17 01:19:41;;;;;;;0.57;0.57;;;;;;;16.94;75.92;101120.34;5162635;28;20027;-83
2022/10/17 01:22:43;;;;;;;0.50;0.45;;;;;;;16.96;74.34;101123.78;5166290;28;20039;-85
2022/10/17 01:25:52;;;;;;;0.47;0.47;;;;;;;17.04;73.85;101126.03;5129431;28;20054;-84
2022/10/17 01:29:07;;;;;;;0.35;0.35;;;;;;;16.97;74.11;101125.50;5147616;28;20038;-84
2022/10/17 01:31:57;;;;;;;0.30;0.30;;;;;;;17.03;73.98;101124.31;5179984;28;20403;-84
2022/10/17 01:35:11;;;;;;;0.40;0.40;;;;;;;16.96;74.18;101121.13;5150340;28;20019;-82
2022/10/17 01:38:13;;;;;;;1.13;0.80;;;;;;;16.97;74.40;101125.50;5124787;28;20750;-82
2022/10/17 01:40:50;;;;;;;0.30;0.30;;;;;;;16.97;74.29;101120.19;5176987;28;20043;-84
2022/10/17 01:43:44;;;;;;;0.40;0.40;;;;;;;16.92;74.29;101116.84;5149681;28;20110;-82
2022/10/17 01:46:39;;;;;;;0.85;0.77;;;;;;;16.98;73.89;101111.28;5148625;28;20035;-82
2022/10/17 01:49:17;;;;;;;0.30;0.30;;;;;;;16.98;73.59;101105.13;5166187;28;20026;-86
2022/10/17 01:52:22;;;;;;;0.40;0.40;;;;;;;16.92;74.15;101100.94;5144357;28;20046;-83
2022/10/17 01:55:22;;;;;;;0.70;0.70;;;;;;;16.89;74.34;101105.53;5140480;28;20039;-82
2022/10/17 01:58:07;;;;;;;0.65;0.65;;;;;;;16.90;74.17;101100.16;5156783;28;20043;-83
2022/10/17 02:00:41;;;;;;;0.60;0.60;;;;;;;16.91;73.77;101093.94;5169868;28;20050;-82
2022/10/17 02:03:28;;;;;;;1.10;1.00;;;;;;;16.93;73.52;101096.56;5159943;28;20022;-82
2022/10/17 02:06:00;;;;;;;0.40;0.40;;;;;;;16.92;73.82;101100.94;5140280;28;20037;-82
2022/10/17 02:08:48;;;;;;;0.50;0.50;;;;;;;16.92;74.21;101094.81;5117672;28;20035;-82
2022/10/17 02:11:25;;;;;;;0.65;0.43;;;;;;;16.91;76.12;101091.28;5157166;28;20181;-83
2022/10/17 02:14:29;;;;;;;0.50;0.50;;;;;;;16.94;74.94;101091.19;5174964;28;20022;-83
2022/10/17 02:17:31;;;;;;;0.30;0.30;;;;;;;16.94;74.12;101091.19;5181158;28;20076;-82
2022/10/17 02:20:31;;;;;;;0.60;0.60;;;;;;;16.90;74.87;101092.22;5150979;28;20360;-83
2022/10/17 02:23:38;;;;;;;0.32;0.32;;;;;;;16.91;74.43;101085.13;5133270;28;20035;-86
2022/10/17 02:26:36;;;;;;;0.70;0.70;;;;;;;16.89;75.21;101079.91;5117963;28;20042;-85
2022/10/17 02:29:24;;;;;;;0.95;0.95;;;;;;;16.89;74.39;101087.88;5112298;28;20042;-82
2022/10/17 02:32:10;;;;;;;0.90;0.82;;;;;;;16.87;75.63;101080.91;5160459;28;20045;-82
2022/10/17 02:34:54;;;;;;;0.60;0.60;;;;;;;16.94;74.07;101088.53;5139362;28;20105;-82
2022/10/17 02:37:28;;;;;;;0.90;0.90;;;;;;;16.90;74.65;101086.06;5108979;28;20031;-85
2022/10/17 02:40:04;;;;;;;0.52;0.52;;;;;;;16.95;75.26;101086.72;5162367;28;20053;-82
2022/10/17 02:42:49;;;;;;;0.73;0.73;;;;;;;16.92;74.78;101089.50;5174037;28;20598;-84
2022/10/17 02:45:26;;;;;;;1.08;1.00;;;;;;;16.89;75.77;101090.50;5160790;28;20376;-82
2022/10/17 02:48:24;;;;;;;1.05;0.77;;;;;;;16.95;74.62;101078.75;5174887;28;20118;-83
2022/10/17 02:51:19;;;;;;;0.75;0.75;;;;;;;16.93;74.30;101086.81;5158807;28;20535;-83
2022/10/17 02:54:27;;;;;;;0.93;0.80;;;;;;;16.87;75.36;101089.72;5169803;28;20050;-82
2022/10/17 02:57:31;;;;;;;20.88;0.85;;;;;;;16.90;74.84;101092.22;5160304;28;20108;-86
2022/10/17 03:00:25;;;;;;;0.80;0.80;;;;;;;16.88;74.53;101088.78;5128901;28;20039;-82
2022/10/17 03:03:01;;;;;;;0.55;0.55;;;;;;;16.91;74.63;101087.78;5144755;28;20114;-81
2022/10/17 03:05:34;;;;;;;0.30;0.30;;;;;;;16.91;75.20;101091.28;5130505;28;20130;-84
2022/10/17 03:08:10;;;;;;;0.30;0.30;;;;;;;16.90;74.77;101081.59;5172960;28;20038;-86
2022/10/17 03:10:41;;;;;;;1.45;0.65;;;;;;;16.88;74.76;101082.63;5118961;28;20081;-81
2022/10/17 03:13:13;;;;;;;0.60;0.60;;;;;;;16.89;75.09;101082.56;5144999;28;20037;-82
2022/10/17 03:15:44;;;;;;;0.43;0.43;;;;;;;16.89;74.80;101079.91;5114598;28;20030;-84
2022/10/17 03:18:19;;;;;;;0.30;0.30;;;;;;;16.83;75.92;101080.19;5130729;28;20093;-82
2022/10/17 03:20:59;;;;;;;0.50;0.50;;;;;;;16.87;76.34;101083.53;5160386;28;20035;-82
2022/10/17 03:23:51;;;;;;;0.30;0.30;;;;;;;16.89;75.07;101079.91;5145771;28;20073;-81
2022/10/17 03:26:24;;;;;;;0.75;0.57;;;;;;;16.84;75.10;101079.25;5140090;28;20039;-82
2022/10/17 03:29:00;;;;;;;0.95;0.70;;;;;;;16.84;76.55;101084.56;5168887;28;20030;-81
2022/10/17 03:31:37;;;;;;;0.55;0.55;;;;;;;16.83;76.62;101096.97;5148061;28;20034;-83
2022/10/17 03:34:12;;;;;;;1.02;0.77;;;;;;;16.86;75.19;101095.94;5149123;28;20027;-82
2022/10/17 03:36:43;;;;;;;0.65;0.65;;;;;;;16.91;75.03;101096.56;5109583;28;20081;-83
2022/10/17 03:39:20;;;;;;;1.48;1.15;;;;;;;16.94;75.21;101103.59;5107877;28;20055;-81
2022/10/17 03:41:57;;;;;;;0.50;0.50;;;;;;;16.88;76.46;101103.81;5122911;28;20105;-83
2022/10/17 03:44:30;;;;;;;0.82;0.82;;;;;;;16.86;76.20;101105.69;5152436;28;20104;-80
2022/10/17 03:47:24;;;;;;;0.50;0.50;;;;;;;16.84;75.95;101100.47;5128609;28;20039;-82
2022/10/17 03:49:59;;;;;;;0.40;0.40;;;;;;;16.88;76.83;101109.13;5118473;28;20043;-81
2022/10/17 03:52:39;;;;;;;0.30;0.30;;;;;;;16.93;76.72;101107.16;5113584;28;20066;-82
2022/10/17 03:55:17;;;;;;;1.10;1.02;;;;;;;16.83;76.76;101111.97;5142756;28;20169;-81
2022/10/17 03:57:53;;;;;;;0.43;0.43;;;;;;;16.86;77.14;101116.31;5140126;28;20063;-82
2022/10/17 04:00:24;;;;;;;1.65;0.88;;;;;;;16.84;76.72;101121.66;5139995;28;20062;-82
2022/10/17 04:02:56;;;;;;;0.35;0.32;;;;;;;16.86;76.44;101122.44;5129130;28;20035;-81
2022/10/17 04:05:27;;;;;;;0.63;0.63;;;;;;;16.86;75.98;101117.16;5112240;28;20043;-81
2022/10/17 04:07:57;;;;;;;0.52;0.52;;;;;;;16.84;76.32;101114.59;5131691;28;20494;-81
2022/10/17 04:10:28;;;;;;;0.55;0.55;;;;;;;16.88;76.11;101119.72;5134400;28;20039;-82
2022/10/17 04:12:58;;;;;;;0.45;0.45;;;;;;;16.89;76.00;101111.72;5131988;28;20031;-82
2022/10/17 04:15:29;;;;;;;0.63;0.63;;;;;;;16.84;75.99;101125.19;5114750;28;20138;-82
2022/10/17 04:18:01;;;;;;;0.77;0.77;;;;;;;16.86;76.11;101129.56;5126512;28;20567;-80
2022/10/17 04:20:36;;;;;;;0.95;0.50;;;;;;;16.85;75.97;101120.72;5121487;28;20050;-81
2022/10/17 04:23:12;;;;;;;0.82;0.82;;;;;;;16.83;76.12;101112.84;5110768;28;20045;-80
2022/10/17 04:25:45;;;;;;;0.40;0.40;;;;;;;16.83;76.81;101117.28;5129063;28;20035;-81
2022/10/17 04:28:16;;;;;;;0.50;0.50;;;;;;;16.85;75.94;101104.81;5123035;28;20027;-82
2022/10/17 04:30:47;;;;;;;0.38;0.38;;;;;;;16.84;76.68;101105.75;5141154;28;20053;-81
2022/10/17 04:33:21;;;;;;;0.30;0.30;;;;;;;16.80;76.87;101106.84;5153490;28;20035;-82
2022/10/17 04:35:59;;;;;;;0.30;0.30;;;;;;;16.81;76.50;101108.56;5153238;28;20055;-81
2022/10/17 04:38:30;;;;;;;0.70;0.70;;;;;;;16.85;75.49;101118.06;5135611;28;20725;-82
2022/10/17 04:41:04;;;;;;;0.73;0.73;;;;;;;16.80;76.78;101113.00;5122581;28;20039;-82
2022/10/17 04:43:38;;;;;;;1.10;1.00;;;;;;;16.80;76.12;101122.75;5118056;28;20038;-80
2022/10/17 04:46:13;;;;;;;0.68;0.68;;;;;;;16.80;76.25;101133.34;5149290;28;20039;-81
2022/10/17 04:48:46;;;;;;;0.32;0.32;;;;;;;16.78;76.00;101129.91;5139634;28;20023;-80
2022/10/17 04:51:17;;;;;;;0.60;0.60;;;;;;;16.79;75.82;101132.47;5135251;28;20119;-81
2022/10/17 04:53:48;;;;;;;0.95;0.60;;;;;;;16.78;75.72;101136.03;5128413;28;20062;-80
2022/10/17 04:56:28;;;;;;;1.37;0.87;;;;;;;16.79;75.85;101137.78;5150657;28;20036;-82
2022/10/17 04:58:59;;;;;;;1.20;0.60;;;;;;;16.79;75.44;101137.78;5147692;28;20130;-80
2022/10/17 05:01:39;;;;;;;0.65;0.65;;;;;;;16.78;75.61;101137.84;5129382;28;20516;-80
2022/10/17 05:04:12;;;;;;;0.65;0.65;;;;;;;16.77;75.95;101133.47;5118783;28;20058;-80
2022/10/17 05:06:42;;;;;;;;;;;;;;;16.73;77.03;101137.22;5086624;28;20045;-80
2022/10/17 05:09:13;;;;;;;0.22;0.22;;;;;;;16.74;76.29;101142.44;5118967;28;19918;-81
2022/10/17 05:11:46;;;;;;;;;;;;;;;16.76;76.09;101140.59;5087440;28;20040;-80
2022/10/17 05:14:16;;;;;;;0.57;0.57;;;;;;;16.80;75.49;101138.66;5116603;28;19926;-80
2022/10/17 05:16:47;;;;;;;1.33;0.50;;;;;;;16.75;76.28;101140.63;5122961;28;20020;-82
2022/10/17 05:19:20;;;;;;;0.60;0.60;;;;;;;16.77;75.37;101149.38;5131606;28;20092;-80
2022/10/17 05:21:56;;;;;;;0.30;0.30;;;;;;;16.77;75.71;101144.06;5150705;28;20035;-80
2022/10/17 05:24:30;;;;;;;0.50;0.50;;;;;;;16.78;75.51;101145.81;5101790;28;20468;-80
2022/10/17 05:27:04;;;;;;;0.75;0.75;;;;;;;16.76;76.23;101153.84;5126958;28;20527;-81
2022/10/17 05:29:51;;;;;;;0.50;0.50;;;;;;;16.72;76.10;101144.28;5127918;28;20039;-80
2022/10/17 05:32:25;;;;;;;0.68;0.68;;;;;;;16.71;76.04;101147.88;5110603;28;20068;-80
2022/10/17 05:34:56;;;;;;;0.40;0.40;;;;;;;16.70;76.69;101163.84;5113006;28;20035;-80
2022/10/17 05:37:31;;;;;;;0.60;0.60;;;;;;;16.72;76.42;101164.63;5096321;28;20468;-80
2022/10/17 05:40:10;;;;;;;0.30;0.30;;;;;;;16.75;75.87;101164.47;5123939;28;20039;-80
2022/10/17 05:42:46;;;;;;;0.30;0.30;;;;;;;16.81;75.64;101166.88;5134274;28;20074;-80
2022/10/17 05:45:20;;;;;;;0.43;0.43;;;;;;;16.75;75.87;101167.13;5158969;28;20058;-80
2022/10/17 05:47:54;;;;;;;;;;;;;;;16.77;75.80;101166.16;5133036;28;20209;-80
2022/10/17 05:50:24;;;;;;;;;;;;;;;16.74;75.63;101162.75;5159209;28;19929;-80
2022/10/17 05:52:54;;;;;;;0.65;0.65;;;;;;;16.73;75.71;101169.84;5145350;28;19945;-80
2022/10/17 05:55:25;;;;;;;0.55;0.55;;;;;;;16.68;76.59;101178.00;5154373;28;20110;-80
2022/10/17 05:58:00;;;;;;;0.50;0.50;;;;;;;16.67;76.33;101175.44;5147154;28;20452;-80
2022/10/17 06:00:34;;;;;;;0.47;0.47;;;;;;;16.71;75.86;101181.47;5133267;28;20043;-80
2022/10/17 06:03:33;;;;;;;0.40;0.40;;;;;;;16.71;76.20;101182.31;5115123;28;20046;-81
2022/10/17 06:06:07;;;;;;;0.73;0.65;;;;;;;16.69;76.07;101184.19;5106248;28;20503;-80
2022/10/17 06:08:41;;;;;;;0.75;0.75;;;;;;;16.69;76.15;101189.50;5119292;28;20038;-80
2022/10/17 06:11:14;;;;;;;0.30;0.30;;;;;;;16.66;76.00;101190.47;5113778;28;20159;-81
2022/10/17 06:13:44;;;;;;;0.60;0.60;;;;;;;16.71;75.28;101205.31;5118429;28;20126;-81
2022/10/17 06:16:15;;;;;;;0.50;0.50;;;;;;;16.68;75.77;101199.22;5126178;28;20205;-79
2022/10/17 06:22:23;;;;;;;0.65;0.63;;;;;;;16.65;75.69;101199.34;5137143;28;20455;-80
2022/10/17 06:24:57;;;;;;;0.95;0.65;;;;;;;16.65;75.69;101204.63;5142779;28;20047;-81
2022/10/17 06:27:29;;;;;;;1.27;1.17;;;;;;;16.67;75.75;101212.53;5134251;28;20019;-80
2022/10/17 06:30:00;;;;;;;0.88;0.77;;;;;;;16.65;75.56;101209.94;5145863;28;20046;-80
2022/10/17 06:32:30;;;;;;;0.60;0.50;;;;;;;16.60;77.63;101196.03;5116597;28;20070;-81
2022/10/17 06:35:04;;;;;;;0.82;0.80;;;;;;;16.63;76.15;101203.88;5117939;28;20070;-80
2022/10/17 06:37:58;;;;;;;0.50;0.50;;;;;;;16.62;76.21;101199.50;5132658;28;20129;-80
2022/10/17 06:40:32;;;;;;;0.63;0.63;;;;;;;16.59;76.30;101210.22;5135760;28;20045;-80
2022/10/17 06:43:03;;;;;;;0.30;0.30;;;;;;;16.59;76.59;101204.91;5109190;28;20039;-80
2022/10/17 06:45:33;;;;;;;0.68;0.68;;;;;;;16.60;76.44;101209.28;5137118;28;20050;-80
2022/10/17 06:48:14;;;;;;;1.05;0.98;;;;;;;16.60;76.57;101219.88;5140477;28;20027;-80
2022/10/17 06:50:47;;;;;;;0.30;0.30;;;;;;;16.66;76.06;101232.00;5124848;28;20050;-80
2022/10/17 06:53:21;;;;;;;0.45;0.45;;;;;;;16.65;75.88;101233.78;5127775;28;20031;-80
2022/10/17 06:55:52;;;;;;;0.82;0.82;;;;;;;16.71;75.78;101229.16;5101007;28;20044;-81
2022/10/17 06:58:23;;;;;;;0.80;0.80;;;;;;;16.68;75.85;101236.31;5139361;28;20031;-80
2022/10/17 07:01:10;;;;;;;0.77;0.77;;;;;;;16.70;76.06;101243.31;5125303;28;20023;-81
2022/10/17 07:03:42;;;;;;;2.10;0.73;;;;;;;16.70;76.31;101235.38;5116014;28;20121;-81
2022/10/17 07:06:16;;;;;;;0.50;0.50;;;;;;;16.72;75.92;101236.19;5124941;28;20066;-81
2022/10/17 07:08:51;;;;;;;1.45;1.35;;;;;;;16.76;76.08;101243.03;5122974;28;20094;-81
2022/10/17 07:11:22;;;;;;;0.82;0.80;;;;;;;16.79;76.47;101243.75;5105361;28;20404;-81
2022/10/17 07:13:56;;;;;;;0.32;0.32;;;;;;;16.77;76.90;101250.06;5124731;28;20042;-81
2022/10/17 07:16:26;;;;;;;0.55;0.55;;;;;;;16.76;76.71;101248.34;5104361;28;20054;-81
2022/10/17 07:18:59;;;;;;;0.43;0.43;;;;;;;16.77;78.80;101244.78;5146723;28;20034;-81
2022/10/17 07:21:30;;;;;;;0.30;0.30;;;;;;;16.76;77.98;101253.66;5142778;28;20193;-81
2022/10/17 07:24:06;;;;;;;5.57;1.02;;;;;;;16.79;77.71;101250.88;5138916;28;20044;-81
2022/10/17 07:26:50;;;;;;;0.60;0.60;;;;;;;16.79;78.04;101256.16;5156374;28;20077;-81
2022/10/17 07:29:21;;;;;;;0.35;0.35;;;;;;;16.81;78.06;101256.97;5157689;28;20068;-81
2022/10/17 07:31:54;;;;;;;0.77;0.77;;;;;;;16.86;77.30;101252.31;5132325;28;20019;-81
2022/10/17 07:34:30;;;;;;;0.55;0.55;;;;;;;16.86;77.65;101246.16;5121502;28;20043;-81
2022/10/17 07:37:01;;;;;;;0.38;0.38;;;;;;;16.94;77.18;101244.91;5117772;28;20102;-81
2022/10/17 07:39:34;;;;;;;0.30;0.30;;;;;;;16.96;77.14;101239.53;5093352;28;20031;-81
2022/10/17 07:42:06;;;;;;;0.47;0.47;;;;;;;16.94;78.58;101247.56;5140484;28;20224;-81
2022/10/17 07:44:39;;;;;;;0.60;0.60;;;;;;;16.95;78.46;101259.00;5136813;28;20051;-81
2022/10/17 07:47:10;;;;;;;2.03;1.05;;;;;;;16.95;78.11;101262.53;5156022;28;20035;-81
2022/10/17 07:49:49;;;;;;;1.10;0.90;;;;;;;16.99;78.12;101264.09;5117083;28;20057;-81
2022/10/17 07:52:20;;;;;;;0.57;0.57;;;;;;;17.02;78.22;101267.53;5154255;28;20085;-81
2022/10/17 07:54:53;;;;;;;5.38;0.68;;;;;;;17.03;77.98;101271.94;5136396;28;20047;-81
2022/10/17 07:57:26;;;;;;;0.35;0.35;;;;;;;17.05;78.33;101285.97;5130494;28;20018;-81
2022/10/17 07:59:58;;;;;;;1.30;1.20;;;;;;;17.10;77.38;101279.53;5141520;28;20046;-80
2022/10/17 08:02:28;;;;;;;1.20;0.75;;;;;;;17.11;77.77;101294.50;5130204;28;20065;-80
2022/10/17 08:04:59;;;;;;;0.35;0.35;;;;;;;17.09;78.53;101304.31;5136420;28;20604;-81
2022/10/17 08:07:29;;;;;;;0.93;0.65;;;;;;;17.13;78.56;101305.91;5111317;28;20031;-81
2022/10/17 08:10:00;;;;;;;0.43;0.43;;;;;;;17.18;78.34;101307.50;5120265;28;20163;-81
2022/10/17 08:12:33;;;;;;;1.48;1.38;;;;;;;17.19;78.53;101304.75;5146649;28;20495;-81
2022/10/17 08:15:08;;;;;;;1.30;1.20;;;;;;;17.18;78.74;101313.63;5107875;28;20078;-81
2022/10/17 08:17:47;;;;;;;2.05;0.77;;;;;;;17.22;78.90;101309.94;5112668;28;20279;-82
2022/10/17 08:20:21;;;;;;;0.65;0.65;;;;;;;17.25;78.04;101304.47;5135123;28;20043;-83
2022/10/17 08:22:57;;;;;;;0.52;0.52;;;;;;;17.33;78.24;101313.88;5121786;28;20066;-82
2022/10/17 08:25:28;;;;;;;2.25;2.05;;;;;;;17.33;78.24;101319.16;5125524;28;20045;-82
2022/10/17 08:27:58;;;;;;;0.30;0.30;;;;;;;17.39;77.99;101317.09;5137948;28;20043;-82
2022/10/17 08:30:29;;;;;;;0.73;0.73;;;;;;;17.42;77.77;101321.41;5111262;28;20038;-82
2022/10/17 08:33:02;;;;;;;1.15;1.15;;;;;;;17.40;78.78;101333.88;5097570;28;20040;-82
2022/10/17 08:35:36;;;;;;;2.70;0.82;;;;;;;17.43;78.19;101336.38;5115907;28;20523;-82
2022/10/17 08:38:09;;;;;;;0.45;0.45;;;;;;;17.48;78.08;101342.31;5092651;28;20062;-82
2022/10/17 08:40:41;;;;;;;0.40;0.40;;;;;;;17.54;78.03;101347.38;5107187;28;20058;-82
2022/10/17 08:43:12;;;;;;;1.02;1.00;;;;;;;17.55;78.15;101343.78;5105910;28;20546;-82
2022/10/17 08:46:10;;;;;;;0.30;0.30;;;;;;;17.58;77.99;101350.75;5116011;28;20095;-81
2022/10/17 08:48:45;;;;;;;0.50;0.50;;;;;;;17.61;78.76;101354.09;5119409;28;20582;-82
2022/10/17 08:51:19;;;;;;;3.13;1.60;;;;;;;17.69;78.02;101350.22;5133645;28;20023;-82
2022/10/17 08:53:56;;;;;;;1.77;0.47;;;;;;;17.70;78.15;101344.84;5136272;28;20050;-82
2022/10/17 08:56:49;;;;;;;2.35;0.55;;;;;;;17.77;77.79;101354.22;5117500;28;20049;-81
2022/10/17 08:59:26;;;;;;;0.50;0.50;;;;;;;17.86;76.90;101352.06;5142014;28;20055;-82
2022/10/17 09:02:13;;;;;;;0.77;0.77;;;;;;;17.84;77.32;101356.63;5150449;28;20038;-82
2022/10/17 09:05:21;;;;;;;0.47;0.47;;;;;;;17.87;77.31;101354.69;5134086;28;20047;-82
2022/10/17 09:08:10;;;;;;;0.30;0.30;;;;;;;17.99;77.02;101368.31;5127479;28;20361;-82
2022/10/17 09:10:59;;;;;;;0.90;0.45;;;;;;;18.03;76.67;101376.06;5129880;28;20126;-82
2022/10/17 09:13:54;;;;;;;0.85;0.70;;;;;;;18.03;76.71;101373.41;5145856;28;20035;-82
2022/10/17 09:16:36;;;;;;;0.38;0.38;;;;;;;18.08;76.61;101373.19;5122532;28;20094;-82
2022/10/17 09:19:11;;;;;;;0.50;0.50;;;;;;;18.09;76.85;101375.78;5157224;28;20034;-82
2022/10/17 09:21:54;;;;;;;4.10;1.95;;;;;;;18.16;76.53;101381.63;5159798;28;20111;-82
2022/10/17 09:24:45;;;;;;;0.85;0.75;;;;;;;18.23;76.10;101380.41;5139873;28;20031;-81
2022/10/17 09:27:33;;;;;;;0.32;0.32;;;;;;;18.31;75.94;101384.47;5156772;28;20034;-82
2022/10/17 09:30:28;;;;;;;0.47;0.47;;;;;;;18.32;75.99;101391.50;5158566;28;20036;-81
2022/10/17 09:33:29;;;;;;;1.52;1.13;;;;;;;18.33;76.25;101391.44;5172667;28;20145;-82
2022/10/17 09:36:13;;;;;;;0.95;0.95;;;;;;;18.39;76.18;101399.13;5146226;28;20038;-82
2022/10/17 09:39:08;;;;;;;0.57;0.57;;;;;;;18.45;76.14;101397.06;5146177;28;20031;-82
2022/10/17 09:41:53;;;;;;;0.65;0.65;;;;;;;18.44;75.99;101401.53;5136214;28;20038;-82
2022/10/17 09:44:25;;;;;;;0.30;0.30;;;;;;;18.48;76.16;101399.59;5151531;28;20559;-83
2022/10/17 09:47:11;;;;;;;0.47;0.47;;;;;;;18.49;75.88;101391.53;5156676;28;20035;-82
2022/10/17 09:49:49;;;;;;;0.35;0.35;;;;;;;18.55;75.50;101403.66;5127629;28;20090;-81
2022/10/17 09:52:47;;;;;;;0.50;0.50;;;;;;;18.58;75.54;101406.19;5140364;28;20045;-81
2022/10/17 09:55:28;;;;;;;0.47;0.47;;;;;;;18.62;75.80;101412.19;5161009;28;20043;-81
2022/10/17 09:58:01;;;;;;;0.47;0.47;;;;;;;18.62;75.49;101415.69;5146960;28;20140;-81
2022/10/17 10:00:39;;;;;;;0.52;0.52;;;;;;;18.63;75.78;101425.41;5161587;28;20035;-81
2022/10/17 10:03:15;;;;;;;0.50;0.50;;;;;;;18.64;75.71;101423.59;5155442;28;20045;-81
2022/10/17 10:06:00;;;;;;;0.30;0.30;;;;;;;18.66;75.66;101421.72;5165704;28;20042;-82
2022/10/17 10:08:47;;;;;;;1.55;0.93;;;;;;;18.68;75.53;101422.50;5156971;28;20045;-84
2022/10/17 10:11:47;;;;;;;0.43;0.43;;;;;;;18.72;75.54;101411.66;5173079;28;20038;-83
2022/10/17 10:14:22;;;;;;;0.80;0.80;;;;;;;18.71;75.64;101417.91;5154783;28;20411;-84
2022/10/17 10:16:55;;;;;;;0.60;0.50;;;;;;;18.66;75.98;101411.09;5148246;28;20046;-84
2022/10/17 10:19:37;;;;;;;0.88;0.82;;;;;;;18.69;75.71;101416.28;5159986;28;20062;-85
2022/10/17 10:22:26;;;;;;;0.20;0.20;;;;;;;18.73;75.59;101417.81;5177951;28;20114;-84
2022/10/17 10:25:16;;;;;;;0.47;0.47;;;;;;;18.75;75.69;101426.59;5144955;28;20069;-84
2022/10/17 10:27:47;;;;;;;0.77;0.77;;;;;;;18.77;75.66;101439.78;5152747;28;20042;-83
2022/10/17 10:30:26;;;;;;;0.50;0.50;;;;;;;18.78;75.54;101449.50;5155237;28;20065;-83
2022/10/17 10:33:14;;;;;;;;;;;;;;;;;;;;;
2022/10/17 10:36:00;;;;;;;0.47;0.47;;;;;;;18.84;75.79;101466.00;5141906;28;20458;-83
2022/10/17 10:38:32;;;;;;;0.75;0.75;;;;;;;18.87;75.91;101471.19;5162069;28;20089;-83
2022/10/17 10:41:07;;;;;;;0.60;0.60;;;;;;;18.86;75.83;101466.78;5127120;28;20182;-82
2022/10/17 10:43:45;;;;;;;0.45;0.45;;;;;;;18.94;75.97;101468.22;5166248;28;20609;-83
2022/10/17 10:46:28;;;;;;;0.32;0.32;;;;;;;18.96;75.76;101467.22;5143928;28;20039;-82
2022/10/17 10:49:03;;;;;;;0.52;0.52;;;;;;;18.99;75.68;101464.41;5162382;28;20589;-83
2022/10/17 10:51:50;;;;;;;0.50;0.50;;;;;;;19.07;75.78;101469.31;5140706;28;20534;-83
2022/10/17 10:54:27;;;;;;;0.20;0.20;;;;;;;19.09;75.65;101461.28;5178135;28;20130;-83
2022/10/17 10:57:02;;;;;;;0.50;0.50;;;;;;;19.09;75.82;101426.72;5114635;28;20022;-83
2022/10/17 10:59:55;;;;;;;0.43;0.43;;;;;;;19.12;75.71;101419.44;5135886;28;20042;-84
2022/10/17 11:02:43;;;;;;;1.45;1.23;;;;;;;19.10;75.82;101431.06;5111239;28;20034;-83
2022/10/17 11:05:35;;;;;;;3.13;1.48;;;;;;;19.12;75.72;101456.66;5145995;28;20181;-83
2022/10/17 11:08:30;;;;;;;0.40;0.40;;;;;;;19.10;75.95;101447.91;5154997;28;20045;-82
2022/10/17 11:11:31;;;;;;;0.40;0.40;;;;;;;19.15;75.44;101456.50;5154563;28;20034;-83
2022/10/17 11:14:10;;;;;;;;;;;;;;;19.15;75.69;101456.50;5142414;28;20038;-83
2022/10/17 11:16:58;;;;;;;0.80;0.80;;;;;;;19.18;76.02;101461.66;5147122;28;19929;-83
2022/10/17 11:19:43;;;;;;;0.35;0.35;;;;;;;19.18;76.22;101477.63;5144815;28;20070;-82
2022/10/17 11:22:30;;;;;;;0.57;0.57;;;;;;;19.19;75.78;101479.34;5145327;28;20028;-82
2022/10/17 11:25:37;;;;;;;0.30;0.30;;;;;;;19.19;75.74;101490.00;5137296;28;20053;-82
2022/10/17 11:28:19;;;;;;;0.52;0.52;;;;;;;19.19;75.57;101483.78;5173070;28;20068;-82
2022/10/17 11:30:54;;;;;;;0.30;0.30;;;;;;;19.15;75.41;101488.41;5147066;28;20399;-82
2022/10/17 11:34:06;;;;;;;0.95;0.95;;;;;;;19.19;74.89;101484.66;5199028;28;20046;-83
2022/10/17 11:37:08;;;;;;;0.25;0.25;;;;;;;19.22;74.60;101493.41;5132069;28;20069;-84
2022/10/17 11:39:52;;;;;;;0.30;0.30;;;;;;;19.19;75.02;101499.75;5117638;28;20133;-82
2022/10/17 11:42:37;;;;;;;0.50;0.50;;;;;;;19.21;74.65;101503.19;5163758;28;20099;-82
2022/10/17 11:45:17;;;;;;;0.52;0.52;;;;;;;19.16;73.71;101508.75;5146545;28;20047;-83
2022/10/17 11:47:57;;;;;;;1.88;1.05;;;;;;;19.13;73.66;101506.22;5126685;28;20053;-81
2022/10/17 11:50:39;;;;;;;0.50;0.50;;;;;;;19.16;73.87;101518.53;5173972;28;20034;-83
2022/10/17 11:53:20;;;;;;;0.30;0.30;;;;;;;19.14;73.31;101507.97;5153984;28;20802;-83
2022/10/17 11:55:58;;;;;;;0.63;0.63;;;;;;;19.16;73.88;101516.72;5139027;28;20030;-82
2022/10/17 11:59:36;;;;;;;0.30;0.30;;;;;;;19.17;74.09;101515.78;5127190;28;20034;-84
2022/10/17 12:02:24;;;;;;;0.60;0.60;;;;;;;19.19;73.34;101523.69;5084343;28;20503;-82
2022/10/17 12:05:16;;;;;;;0.68;0.60;;;;;;;19.18;73.79;101529.94;5099774;28;20035;-84
2022/10/17 12:08:14;;;;;;;0.30;0.30;;;;;;;19.12;72.72;101525.81;5135961;28;20043;-83
2022/10/17 12:11:09;;;;;;;0.40;0.40;;;;;;;19.12;72.79;101519.63;5152828;28;20633;-82
2022/10/17 12:13:50;;;;;;;0.50;0.50;;;;;;;19.08;72.29;101526.06;5150169;28;20061;-82
2022/10/17 12:16:40;;;;;;;1.85;1.15;;;;;;;19.09;72.56;101519.78;5100011;28;20054;-83
2022/10/17 12:19:10;;;;;;;0.43;0.43;;;;;;;19.06;72.76;101520.78;5120803;28;20047;-83
2022/10/17 12:21:57;;;;;;;10.32;0.68;;;;;;;19.05;72.91;101516.41;5372251;23;20561;-85
2022/10/17 12:24:54;;;;;;;0.35;0.35;;;;;;;19.04;72.71;101535.97;5168319;28;20038;-86
2022/10/17 12:27:31;;;;;;;0.93;0.88;;;;;;;19.13;72.64;101532.84;5179058;28;20022;-85
2022/10/17 12:30:04;;;;;;;1.45;0.47;;;;;;;19.09;73.08;101528.63;5142007;28;20038;-85
2022/10/17 12:32:34;;;;;;;;;;;;;;;19.06;73.08;101534.09;5156422;28;20090;-85